Time;durP1;ratioP1;P1;durP2;ratioP2;P2;SDS_P1;SDS_P2;PMS_P1;PMS_P2;Temp;Humidity;BMP_temperature;BMP_pressure;BME280_temperature;BME280_humidity;BME280_pressure;Samples;Min_cycle;Max_cycle;Signal;HPM_P1;HPM_P2
2024/04/10 00:02:15;;;;;;;2.93;2.23;;;;;;;;;;5316155;27;20229;-81
2024/04/10 00:05:20;;;;;;;2.13;1.80;;;;;;;;;;5316069;27;20225;-81
2024/04/10 00:08:25;;;;;;;2.13;1.93;;;;;;;;;;5334926;26;20291;-81
2024/04/10 00:11:30;;;;;;;2.17;1.90;;;;;;;;;;5315246;27;20213;-81
2024/04/10 00:14:38;;;;;;;2.10;1.83;;;;;;;;;;5315702;27;20269;-81
2024/04/10 00:17:42;;;;;;;3.50;1.90;;;;;;;;;;5315410;27;20346;-81
2024/04/10 00:20:47;;;;;;;2.50;2.07;;;;;;;;;;5315293;27;20218;-81
2024/04/10 00:23:51;;;;;;;2.53;1.83;;;;;;;;;;5315533;27;20208;-81
2024/04/10 00:26:56;;;;;;;3.03;2.17;;;;;;;;;;5318384;27;20765;-81
2024/04/10 00:30:00;;;;;;;2.00;1.80;;;;;;;;;;5318321;27;20221;-81
2024/04/10 00:33:04;;;;;;;3.03;1.93;;;;;;;;;;5317759;27;20226;-81
2024/04/10 00:36:09;;;;;;;2.90;2.00;;;;;;;;;;5317457;27;20276;-81
2024/04/10 00:39:13;;;;;;;2.03;1.87;;;;;;;;;;5317398;27;20217;-81
2024/04/10 00:42:17;;;;;;;2.03;1.77;;;;;;;;;;5317868;27;20713;-81
2024/04/10 00:45:22;;;;;;;2.77;2.20;;;;;;;;;;5317512;27;20230;-81
2024/04/10 00:48:27;;;;;;;2.00;1.80;;;;;;;;;;5317411;27;20218;-80
2024/04/10 00:51:31;;;;;;;2.20;2.00;;;;;;;;;;5317624;27;20225;-81
2024/04/10 00:54:37;;;;;;;2.60;1.87;;;;;;;;;;5317458;27;20225;-81
2024/04/10 00:57:41;;;;;;;2.00;1.80;;;;;;;;;;5317332;27;20273;-81
2024/04/10 01:00:45;;;;;;;2.30;1.90;;;;;;;;;;5316847;27;20214;-81
2024/04/10 01:03:50;;;;;;;4.03;2.10;;;;;;;;;;5317400;27;20239;-81
2024/04/10 01:06:54;;;;;;;4.77;2.07;;;;;;;;;;5317161;27;20288;-81
2024/04/10 01:09:59;;;;;;;2.37;1.90;;;;;;;;;;5317170;27;20280;-81
2024/04/10 01:13:03;;;;;;;3.47;2.20;;;;;;;;;;5316933;27;20285;-80
2024/04/10 01:16:07;;;;;;;2.90;2.30;;;;;;;;;;5316717;27;20280;-80
2024/04/10 01:19:12;;;;;;;2.47;2.27;;;;;;;;;;5316960;27;20267;-81
2024/04/10 01:22:15;;;;;;;2.30;2.10;;;;;;;;;;5316355;27;20225;-81
2024/04/10 01:25:20;;;;;;;2.03;1.83;;;;;;;;;;5316485;27;20225;-81
2024/04/10 01:28:24;;;;;;;2.93;2.10;;;;;;;;;;5317006;27;20225;-81
2024/04/10 01:31:30;;;;;;;2.43;2.23;;;;;;;;;;5316451;27;20229;-80
2024/04/10 01:34:35;;;;;;;2.80;2.07;;;;;;;;;;5316769;27;20718;-80
2024/04/10 01:37:39;;;;;;;4.37;2.00;;;;;;;;;;5317463;27;20269;-80
2024/04/10 01:40:43;;;;;;;3.63;1.97;;;;;;;;;;5320736;27;20272;-80
2024/04/10 01:43:47;;;;;;;2.57;2.30;;;;;;;;;;5319410;27;20203;-80
2024/04/10 01:46:52;;;;;;;4.33;2.20;;;;;;;;;;5318545;27;20293;-80
2024/04/10 01:49:56;;;;;;;2.93;2.30;;;;;;;;;;5318696;27;20275;-80
2024/04/10 01:53:01;;;;;;;2.00;1.83;;;;;;;;;;5317859;27;20221;-80
2024/04/10 01:56:05;;;;;;;3.97;1.87;;;;;;;;;;5317425;27;20293;-80
2024/04/10 01:59:09;;;;;;;2.77;2.10;;;;;;;;;;5317510;27;20225;-80
2024/04/10 02:02:13;;;;;;;2.40;1.80;;;;;;;;;;5317348;27;20225;-80
2024/04/10 02:05:18;;;;;;;3.60;2.00;;;;;;;;;;5316653;27;20570;-80
2024/04/10 02:08:22;;;;;;;2.63;1.90;;;;;;;;;;5317206;27;20551;-80
2024/04/10 02:11:26;;;;;;;2.07;1.83;;;;;;;;;;5317137;27;20276;-80
2024/04/10 02:14:35;;;;;;;3.83;1.93;;;;;;;;;;5316523;27;20749;-80
2024/04/10 02:17:39;;;;;;;3.20;2.30;;;;;;;;;;5335289;26;20304;-80
2024/04/10 02:20:44;;;;;;;2.37;2.00;;;;;;;;;;5316367;27;20560;-80
2024/04/10 02:23:48;;;;;;;2.73;2.17;;;;;;;;;;5316973;27;20217;-81
2024/04/10 02:26:53;;;;;;;3.33;1.93;;;;;;;;;;5316546;27;20273;-81
2024/04/10 02:29:57;;;;;;;2.33;1.80;;;;;;;;;;5316585;27;20566;-81
2024/04/10 02:33:01;;;;;;;2.07;1.70;;;;;;;;;;5316355;27;20225;-81
2024/04/10 02:36:06;;;;;;;2.23;1.93;;;;;;;;;;5316509;27;20804;-81
2024/04/10 02:39:10;;;;;;;2.63;1.80;;;;;;;;;;5315951;27;20225;-81
2024/04/10 02:42:15;;;;;;;4.03;1.80;;;;;;;;;;5315636;27;20722;-81
2024/04/10 02:45:19;;;;;;;2.53;1.90;;;;;;;;;;5316613;27;20229;-81
2024/04/10 02:48:24;;;;;;;4.17;2.17;;;;;;;;;;5314798;27;20273;-80
2024/04/10 02:51:28;;;;;;;1.90;1.70;;;;;;;;;;5316102;27;20229;-80
2024/04/10 02:54:33;;;;;;;3.87;1.70;;;;;;;;;;5316258;27;20226;-80
2024/04/10 02:57:37;;;;;;;1.97;1.67;;;;;;;;;;5315746;27;20289;-80
2024/04/10 03:00:51;;;;;;;3.20;1.70;;;;;;;;;;5315931;27;20233;-80
2024/04/10 03:03:55;;;;;;;6.87;1.83;;;;;;;;;;5316056;27;20261;-80
2024/04/10 03:07:03;;;;;;;5.60;2.20;;;;;;;;;;5315764;27;20269;-80
2024/04/10 03:10:09;;;;;;;2.33;1.93;;;;;;;;;;5315431;27;20225;-80
2024/04/10 03:13:13;;;;;;;3.10;2.00;;;;;;;;;;5314991;27;20233;-80
2024/04/10 03:16:18;;;;;;;4.03;2.20;;;;;;;;;;5333348;26;20277;-80
2024/04/10 03:19:22;;;;;;;2.73;2.07;;;;;;;;;;5314950;27;20238;-80
2024/04/10 03:22:26;;;;;;;2.10;1.90;;;;;;;;;;5314722;27;20233;-80
2024/04/10 03:25:33;;;;;;;1.87;1.70;;;;;;;;;;5316716;27;20229;-80
2024/04/10 03:28:38;;;;;;;2.30;1.80;;;;;;;;;;5318390;27;20218;-80
2024/04/10 03:31:42;;;;;;;4.03;2.03;;;;;;;;;;5318187;27;20229;-80
2024/04/10 03:34:46;;;;;;;3.67;2.20;;;;;;;;;;5317516;27;20222;-80
2024/04/10 03:37:51;;;;;;;3.70;2.10;;;;;;;;;;5316848;27;20300;-80
2024/04/10 03:40:55;;;;;;;5.80;2.20;;;;;;;;;;5316905;27;20723;-80
2024/04/10 03:44:04;;;;;;;4.43;2.50;;;;;;;;;;5316276;27;20218;-80
2024/04/10 03:47:09;;;;;;;3.50;2.30;;;;;;;;;;5316413;27;20285;-80
2024/04/10 03:50:14;;;;;;;5.40;2.30;;;;;;;;;;5315981;27;20222;-81
2024/04/10 03:53:19;;;;;;;2.67;2.07;;;;;;;;;;5315900;27;20246;-81
2024/04/10 03:56:23;;;;;;;3.83;2.27;;;;;;;;;;5315494;27;20613;-80
2024/04/10 03:59:27;;;;;;;2.30;2.10;;;;;;;;;;5318165;27;20221;-80
2024/04/10 04:02:33;;;;;;;4.07;2.40;;;;;;;;;;5318691;27;20257;-80
2024/04/10 04:05:38;;;;;;;3.63;2.10;;;;;;;;;;5317463;27;20230;-80
2024/04/10 04:08:42;;;;;;;3.73;2.40;;;;;;;;;;5317871;27;20210;-80
2024/04/10 04:11:46;;;;;;;4.10;2.37;;;;;;;;;;5319071;27;20709;-80
2024/04/10 04:14:50;;;;;;;4.43;2.43;;;;;;;;;;5319055;27;20218;-81
2024/04/10 04:17:54;;;;;;;4.30;2.27;;;;;;;;;;5318549;27;20343;-80
2024/04/10 04:20:58;;;;;;;4.20;2.63;;;;;;;;;;5318554;27;20222;-80
2024/04/10 04:24:03;;;;;;;3.53;2.50;;;;;;;;;;5318373;27;20245;-80
2024/04/10 04:27:08;;;;;;;3.07;2.57;;;;;;;;;;5318264;27;20273;-81
2024/04/10 04:30:12;;;;;;;4.57;2.70;;;;;;;;;;5317276;27;20288;-80
2024/04/10 04:33:18;;;;;;;6.53;2.17;;;;;;;;;;5318192;27;20268;-80
2024/04/10 04:36:22;;;;;;;5.17;2.03;;;;;;;;;;5317355;27;20272;-80
2024/04/10 04:39:27;;;;;;;2.97;2.53;;;;;;;;;;5337173;26;20229;-80
2024/04/10 04:42:32;;;;;;;3.87;2.43;;;;;;;;;;5302134;27;20281;-80
2024/04/10 04:45:38;;;;;;;3.37;2.60;;;;;;;;;;5282940;27;20269;-80
2024/04/10 04:48:42;;;;;;;4.80;2.90;;;;;;;;;;5284039;27;20226;-80
2024/04/10 04:51:46;;;;;;;4.57;2.63;;;;;;;;;;5284007;27;20222;-81
2024/04/10 04:54:50;;;;;;;4.93;2.67;;;;;;;;;;5284026;27;20223;-80
2024/04/10 04:57:54;;;;;;;3.57;2.63;;;;;;;;;;5283966;27;20223;-80
2024/04/10 05:00:58;;;;;;;3.07;2.60;;;;;;;;;;5283168;27;20223;-81
2024/04/10 05:07:25;;;;;;;3.03;2.73;;;;;;;;;;5281791;27;20274;-81
2024/04/10 05:10:28;;;;;;;3.17;2.30;;;;;;;;;;5281708;27;20242;-81
2024/04/10 05:13:33;;;;;;;3.57;2.50;;;;;;;;;;5283841;27;20222;-80
2024/04/10 05:16:37;;;;;;;3.53;2.70;;;;;;;;;;5285567;27;20281;-81
2024/04/10 05:19:42;;;;;;;4.23;2.83;;;;;;;;;;5284149;27;20282;-80
2024/04/10 05:22:46;;;;;;;5.70;2.73;;;;;;;;;;5301691;27;20227;-80
2024/04/10 05:25:53;;;;;;;3.33;2.70;;;;;;;;;;5283467;27;20694;-80
2024/04/10 05:28:57;;;;;;;3.17;2.50;;;;;;;;;;5301182;27;20313;-80
2024/04/10 05:32:02;;;;;;;5.03;2.37;;;;;;;;;;5280940;27;20711;-80
2024/04/10 05:35:09;;;;;;;5.77;2.80;;;;;;;;;;5300757;27;20566;-80
2024/04/10 05:38:13;;;;;;;3.10;2.80;;;;;;;;;;5352700;21;20333;-82
2024/04/10 05:41:17;;;;;;;3.53;2.70;;;;;;;;;;5314544;27;20284;-82
2024/04/10 05:44:22;;;;;;;4.20;2.80;;;;;;;;;;5315466;27;20284;-82
2024/04/10 05:47:27;;;;;;;3.10;2.60;;;;;;;;;;5314816;26;20626;-82
2024/04/10 05:50:31;;;;;;;3.77;2.80;;;;;;;;;;5315087;27;20284;-82
2024/04/10 05:53:36;;;;;;;15.90;9.90;;;;;;;;;;5315629;27;20618;-82
2024/04/10 05:56:40;;;;;;;29.67;19.00;;;;;;;;;;5318093;26;20765;-82
2024/04/10 05:59:45;;;;;;;37.77;28.37;;;;;;;;;;5294873;27;20225;-83
2024/04/10 06:02:49;;;;;;;8.17;6.53;;;;;;;;;;5294412;27;20272;-82
2024/04/10 06:05:54;;;;;;;3.77;3.33;;;;;;;;;;5315394;27;20226;-82
2024/04/10 06:08:59;;;;;;;3.43;3.13;;;;;;;;;;5315256;27;20225;-83
2024/04/10 06:12:03;;;;;;;5.17;3.87;;;;;;;;;;5314480;27;20765;-82
2024/04/10 06:15:07;;;;;;;27.20;16.27;;;;;;;;;;5313964;27;20225;-82
2024/04/10 06:18:11;;;;;;;13.87;9.93;;;;;;;;;;5315252;26;20289;-82
2024/04/10 06:21:15;;;;;;;7.70;6.23;;;;;;;;;;5294046;27;20272;-82
2024/04/10 06:24:21;;;;;;;7.93;2.90;;;;;;;;;;5314761;27;20222;-82
2024/04/10 06:27:25;;;;;;;3.63;3.00;;;;;;;;;;5294157;27;20292;-82
2024/04/10 06:30:29;;;;;;;5.13;3.10;;;;;;;;;;5294332;27;20287;-82
2024/04/10 06:33:34;;;;;;;3.70;2.93;;;;;;;;;;5313997;27;20260;-82
2024/04/10 06:36:38;;;;;;;4.87;3.50;;;;;;;;;;5293924;26;20777;-82
2024/04/10 06:39:42;;;;;;;4.23;3.30;;;;;;;;;;5313285;27;20218;-82
2024/04/10 06:42:46;;;;;;;4.30;2.80;;;;;;;;;;5314859;27;20625;-82
2024/04/10 06:45:59;;;;;;;8.13;7.30;;;;;;;;;;5313332;27;20222;-82
2024/04/10 06:49:03;;;;;;;4.37;3.97;;;;;;;;;;5314477;27;20280;-82
2024/04/10 06:52:07;;;;;;;3.40;3.10;;;;;;;;;;5315033;27;20291;-82
2024/04/10 06:55:11;;;;;;;4.00;3.13;;;;;;;;;;5314345;27;20346;-82
2024/04/10 06:58:16;;;;;;;8.90;6.97;;;;;;;;;;5314280;26;20284;-82
2024/04/10 07:01:20;;;;;;;3.97;3.53;;;;;;;;;;5314714;27;20225;-82
2024/04/10 07:04:24;;;;;;;3.17;2.67;;;;;;;;;;5314388;27;20268;-83
2024/04/10 07:07:28;;;;;;;4.77;3.10;;;;;;;;;;5313729;26;20284;-82
2024/04/10 07:10:33;;;;;;;4.93;2.50;;;;;;;;;;5293705;27;20568;-82
2024/04/10 07:13:51;;;;;;;5.20;2.50;;;;;;;;;;5314949;27;20221;-82
2024/04/10 07:16:56;;;;;;;5.73;2.33;;;;;;;;;;5293830;26;20284;-82
2024/04/10 07:20:00;;;;;;;3.07;2.20;;;;;;;;;;5293980;27;20221;-82
2024/04/10 07:23:06;;;;;;;2.57;2.00;;;;;;;;;;5314673;27;20226;-82
2024/04/10 07:26:15;;;;;;;2.87;2.40;;;;;;;;;;5313584;26;20710;-82
2024/04/10 07:29:19;;;;;;;2.67;2.27;;;;;;;;;;5313443;27;20229;-82
2024/04/10 07:32:24;;;;;;;5.33;2.70;;;;;;;;;;5293155;27;20225;-82
2024/04/10 07:35:29;;;;;;;5.20;2.60;;;;;;;;;;5317623;27;20562;-83
2024/04/10 07:38:33;;;;;;;4.27;2.50;;;;;;;;;;5317542;27;20226;-82
2024/04/10 07:41:37;;;;;;;3.03;2.30;;;;;;;;;;5317531;27;20273;-82
2024/04/10 07:44:41;;;;;;;4.07;2.43;;;;;;;;;;5296535;27;20218;-82
2024/04/10 07:47:45;;;;;;;9.40;5.63;;;;;;;;;;5316186;26;20630;-82
2024/04/10 07:50:50;;;;;;;4.93;3.03;;;;;;;;;;5316325;27;20718;-82
2024/04/10 07:53:54;;;;;;;6.90;6.30;;;;;;;;;;5317649;27;20246;-82
2024/04/10 07:56:58;;;;;;;4.00;2.60;;;;;;;;;;5316346;26;20292;-82
2024/04/10 08:00:03;;;;;;;4.47;2.60;;;;;;;;;;5277261;27;20566;-82
2024/04/10 08:03:15;;;;;;;3.07;2.03;;;;;;;;;;5315793;27;20280;-82
2024/04/10 08:06:19;;;;;;;5.20;2.40;;;;;;;;;;5317125;26;20722;-82
2024/04/10 08:09:23;;;;;;;6.63;5.57;;;;;;;;;;5317253;27;20226;-82
2024/04/10 08:12:28;;;;;;;5.97;3.37;;;;;;;;;;5317171;27;20268;-82
2024/04/10 08:15:33;;;;;;;5.43;2.80;;;;;;;;;;5296314;27;20563;-82
2024/04/10 08:18:42;;;;;;;8.40;3.80;;;;;;;;;;5317061;27;20268;-82
2024/04/10 08:21:47;;;;;;;4.00;2.27;;;;;;;;;;5315868;27;20221;-82
2024/04/10 08:24:51;;;;;;;8.03;6.63;;;;;;;;;;5295803;27;20285;-82
2024/04/10 08:27:56;;;;;;;2.83;2.40;;;;;;;;;;5316856;26;20273;-82
2024/04/10 08:31:00;;;;;;;3.63;2.47;;;;;;;;;;5316883;27;20213;-82
2024/04/10 08:34:05;;;;;;;4.50;2.97;;;;;;;;;;5316485;27;20603;-82
2024/04/10 08:37:10;;;;;;;5.47;4.37;;;;;;;;;;5316744;26;20277;-82
2024/04/10 08:40:14;;;;;;;5.60;3.10;;;;;;;;;;5316295;27;20217;-82
2024/04/10 08:43:20;;;;;;;3.57;2.70;;;;;;;;;;5316519;27;20273;-82
2024/04/10 08:46:28;;;;;;;4.53;3.00;;;;;;;;;;5316207;26;20284;-82
2024/04/10 08:49:33;;;;;;;3.27;2.40;;;;;;;;;;5316678;27;20285;-82
2024/04/10 08:52:39;;;;;;;7.87;2.70;;;;;;;;;;5316503;27;20291;-82
2024/04/10 08:55:43;;;;;;;4.87;2.27;;;;;;;;;;5315233;27;20714;-82
2024/04/10 08:58:48;;;;;;;10.40;5.50;;;;;;;;;;5296067;27;20225;-82
2024/04/10 09:01:54;;;;;;;5.87;2.67;;;;;;;;;;5315206;27;20224;-82
2024/04/10 09:04:59;;;;;;;3.23;2.30;;;;;;;;;;5316029;27;20226;-82
2024/04/10 09:08:03;;;;;;;6.83;2.57;;;;;;;;;;5314533;26;20276;-82
2024/04/10 09:11:07;;;;;;;6.10;2.20;;;;;;;;;;5315547;27;20265;-81
2024/04/10 09:14:12;;;;;;;6.30;2.20;;;;;;;;;;5314937;27;20222;-82
2024/04/10 09:17:17;;;;;;;3.73;2.70;;;;;;;;;;5315414;26;20284;-82
2024/04/10 09:20:22;;;;;;;4.03;2.63;;;;;;;;;;5316611;27;20229;-82
2024/04/10 09:23:26;;;;;;;4.60;2.10;;;;;;;;;;5315395;27;20558;-82
2024/04/10 09:26:30;;;;;;;5.90;2.30;;;;;;;;;;5315251;26;20288;-82
2024/04/10 09:29:34;;;;;;;4.93;2.63;;;;;;;;;;5295130;27;20214;-82
2024/04/10 09:32:39;;;;;;;4.87;2.40;;;;;;;;;;5315070;27;20268;-82
2024/04/10 09:35:44;;;;;;;3.13;2.00;;;;;;;;;;5295096;27;20225;-82
2024/04/10 09:38:49;;;;;;;3.73;2.00;;;;;;;;;;5315943;27;20228;-83
2024/04/10 09:42:00;;;;;;;3.70;2.10;;;;;;;;;;5315729;27;20671;-82
2024/04/10 09:45:15;;;;;;;6.97;2.10;;;;;;;;;;5315620;27;20744;-82
2024/04/10 09:48:21;;;;;;;4.03;1.80;;;;;;;;;;5295445;27;20285;-82
2024/04/10 09:51:26;;;;;;;4.40;2.23;;;;;;;;;;5315995;27;20555;-82
2024/04/10 09:54:32;;;;;;;3.80;2.00;;;;;;;;;;5314872;27;20229;-82
2024/04/10 09:57:37;;;;;;;5.67;2.07;;;;;;;;;;5294904;27;20284;-82
2024/04/10 10:00:41;;;;;;;6.33;2.33;;;;;;;;;;5314716;27;20217;-82
2024/04/10 10:03:56;;;;;;;7.30;3.10;;;;;;;;;;5319801;27;20273;-82
2024/04/10 10:07:01;;;;;;;3.40;1.90;;;;;;;;;;5319445;26;20273;-82
2024/04/10 10:10:06;;;;;;;5.07;2.07;;;;;;;;;;5318707;27;20210;-82
2024/04/10 10:13:11;;;;;;;3.93;1.80;;;;;;;;;;5318604;27;20256;-82
2024/04/10 10:16:24;;;;;;;5.23;2.00;;;;;;;;;;5318466;26;20229;-82
2024/04/10 10:19:33;;;;;;;3.93;2.03;;;;;;;;;;5318437;27;20284;-82
2024/04/10 10:22:38;;;;;;;4.77;2.10;;;;;;;;;;5318445;27;20276;-82
2024/04/10 10:25:43;;;;;;;5.13;2.50;;;;;;;;;;5318800;27;20229;-82
2024/04/10 10:28:47;;;;;;;3.40;1.80;;;;;;;;;;5317842;27;20229;-83
2024/04/10 10:32:05;;;;;;;3.00;1.53;;;;;;;;;;5317958;27;20233;-82
2024/04/10 10:35:10;;;;;;;4.23;1.90;;;;;;;;;;5297514;27;20233;-82
2024/04/10 10:38:16;;;;;;;2.73;1.87;;;;;;;;;;5296966;27;20277;-82
2024/04/10 10:41:20;;;;;;;3.87;1.60;;;;;;;;;;5319461;27;20251;-81
2024/04/10 10:44:24;;;;;;;4.53;2.13;;;;;;;;;;5300887;27;20229;-82
2024/04/10 10:47:29;;;;;;;6.03;1.93;;;;;;;;;;5321231;26;20283;-81
2024/04/10 10:50:34;;;;;;;4.77;2.00;;;;;;;;;;5321834;27;20715;-82
2024/04/10 10:53:38;;;;;;;5.73;2.07;;;;;;;;;;5322677;27;20764;-82
2024/04/10 10:56:42;;;;;;;5.70;2.37;;;;;;;;;;5322809;26;20641;-82
2024/04/10 10:59:47;;;;;;;9.30;2.10;;;;;;;;;;5322401;27;20203;-82
2024/04/10 11:02:51;;;;;;;5.27;1.87;;;;;;;;;;5321581;27;20284;-82
2024/04/10 11:06:09;;;;;;;6.80;2.03;;;;;;;;;;5322170;27;20225;-82
2024/04/10 11:09:15;;;;;;;4.27;2.00;;;;;;;;;;5320237;27;20207;-82
2024/04/10 11:12:19;;;;;;;6.10;2.00;;;;;;;;;;5321206;27;20247;-82
2024/04/10 11:15:24;;;;;;;5.47;2.00;;;;;;;;;;5321695;27;20207;-82
2024/04/10 11:18:28;;;;;;;4.47;2.60;;;;;;;;;;5321342;27;20620;-82
2024/04/10 11:21:33;;;;;;;5.20;1.80;;;;;;;;;;5321212;27;20215;-82
2024/04/10 11:24:37;;;;;;;4.43;1.70;;;;;;;;;;5319802;27;20222;-82
2024/04/10 11:27:41;;;;;;;5.23;2.10;;;;;;;;;;5320772;26;20263;-82
2024/04/10 11:30:46;;;;;;;5.20;1.90;;;;;;;;;;5320457;27;20221;-82
2024/04/10 11:33:50;;;;;;;3.40;1.90;;;;;;;;;;5319367;27;20247;-82
2024/04/10 11:36:55;;;;;;;6.37;1.80;;;;;;;;;;5320415;26;20255;-81
2024/04/10 11:39:59;;;;;;;4.13;1.50;;;;;;;;;;5320212;27;20208;-82
2024/04/10 11:43:03;;;;;;;5.47;1.73;;;;;;;;;;5320468;27;20317;-82
2024/04/10 11:46:09;;;;;;;2.60;1.47;;;;;;;;;;5319957;26;20225;-82
2024/04/10 11:49:13;;;;;;;3.73;1.90;;;;;;;;;;5319850;27;20619;-81
2024/04/10 11:52:17;;;;;;;7.70;1.93;;;;;;;;;;5299002;27;20289;-81
2024/04/10 11:55:22;;;;;;;3.83;1.53;;;;;;;;;;5319352;27;20208;-82
2024/04/10 11:58:26;;;;;;;4.33;2.03;;;;;;;;;;5319647;27;20229;-82
2024/04/10 12:01:30;;;;;;;4.13;2.00;;;;;;;;;;5317907;27;20268;-82
2024/04/10 12:04:35;;;;;;;4.13;1.83;;;;;;;;;;5319076;27;20614;-81
2024/04/10 12:07:41;;;;;;;6.27;1.73;;;;;;;;;;5318980;26;20281;-82
2024/04/10 12:10:45;;;;;;;3.83;1.80;;;;;;;;;;5318218;27;20226;-82
2024/04/10 12:13:49;;;;;;;4.60;1.60;;;;;;;;;;5317778;27;20218;-82
2024/04/10 12:16:54;;;;;;;3.53;1.67;;;;;;;;;;5317897;26;20276;-82
2024/04/10 12:19:59;;;;;;;5.67;1.73;;;;;;;;;;5297944;27;20229;-82
2024/04/10 12:23:03;;;;;;;5.63;2.23;;;;;;;;;;5320413;27;20226;-81
2024/04/10 12:26:07;;;;;;;7.07;2.13;;;;;;;;;;5319171;26;20230;-82
2024/04/10 12:29:12;;;;;;;4.33;1.63;;;;;;;;;;5319260;27;20234;-81
2024/04/10 12:32:16;;;;;;;6.27;1.87;;;;;;;;;;5318758;27;20226;-81
2024/04/10 12:38:44;;;;;;;8.57;2.70;;;;;;;;;;5319784;27;20214;-81
2024/04/10 12:41:51;;;;;;;7.40;1.70;;;;;;;;;;5297999;27;20265;-81
2024/04/10 12:44:55;;;;;;;3.77;1.47;;;;;;;;;;5298102;27;20280;-82
2024/04/10 12:48:05;;;;;;;4.00;1.53;;;;;;;;;;5330779;26;20641;-82
2024/04/10 12:51:12;;;;;;;5.80;1.40;;;;;;;;;;5299495;27;20284;-82
2024/04/10 12:54:21;;;;;;;9.90;1.53;;;;;;;;;;5260471;27;20229;-81
2024/04/10 12:57:25;;;;;;;5.53;1.97;;;;;;;;;;5317786;26;20297;-82
2024/04/10 13:00:30;;;;;;;5.07;1.50;;;;;;;;;;5317374;27;20226;-82
2024/04/10 13:03:35;;;;;;;3.57;1.50;;;;;;;;;;5317107;27;20614;-82
2024/04/10 13:06:40;;;;;;;3.77;1.60;;;;;;;;;;5317759;26;20630;-83
2024/04/10 13:09:52;;;;;;;4.47;1.73;;;;;;;;;;5318449;27;20229;-82
2024/04/10 13:12:56;;;;;;;4.67;1.57;;;;;;;;;;5297561;27;20282;-82
2024/04/10 13:16:27;;;;;;;3.37;1.63;;;;;;;;;;5318304;26;20590;-86
2024/04/10 13:19:34;;;;;;;4.13;1.70;;;;;;;;;;5297157;27;20278;-82
2024/04/10 13:22:39;;;;;;;5.60;1.70;;;;;;;;;;5317882;27;20233;-83
2024/04/10 13:25:43;;;;;;;3.43;1.40;;;;;;;;;;5317063;27;20242;-82
2024/04/10 13:28:49;;;;;;;6.27;1.70;;;;;;;;;;5317662;27;20230;-82
2024/04/10 13:31:53;;;;;;;2.70;1.50;;;;;;;;;;5317244;27;20234;-83
2024/04/10 13:34:57;;;;;;;3.30;1.30;;;;;;;;;;5316380;27;20232;-83
2024/04/10 13:38:02;;;;;;;5.37;1.43;;;;;;;;;;5296050;27;20292;-83
2024/04/10 13:41:06;;;;;;;3.50;1.50;;;;;;;;;;5316280;27;20272;-83
2024/04/10 13:44:10;;;;;;;2.93;1.40;;;;;;;;;;5317249;27;20225;-82
2024/04/10 13:47:14;;;;;;;4.83;1.40;;;;;;;;;;5296383;27;20285;-83
2024/04/10 13:50:19;;;;;;;2.27;1.13;;;;;;;;;;5295889;27;20225;-83
2024/04/10 13:53:23;;;;;;;3.13;1.40;;;;;;;;;;5315950;27;20569;-82
2024/04/10 13:56:27;;;;;;;3.50;1.67;;;;;;;;;;5315288;26;20284;-83
2024/04/10 13:59:32;;;;;;;4.43;1.43;;;;;;;;;;5295892;27;20214;-82
2024/04/10 14:02:36;;;;;;;4.23;1.30;;;;;;;;;;5296216;27;20269;-82
2024/04/10 14:05:41;;;;;;;3.47;1.20;;;;;;;;;;5315396;27;20229;-83
2024/04/10 14:08:46;;;;;;;3.77;1.50;;;;;;;;;;5315182;27;20226;-83
2024/04/10 14:11:51;;;;;;;2.50;1.10;;;;;;;;;;5315716;27;20281;-82
2024/04/10 14:14:55;;;;;;;3.47;1.50;;;;;;;;;;5316195;27;20229;-81
2024/04/10 14:17:59;;;;;;;3.83;1.70;;;;;;;;;;5316491;26;20350;-82
2024/04/10 14:21:05;;;;;;;2.27;1.10;;;;;;;;;;5316626;27;20229;-82
2024/04/10 14:24:09;;;;;;;1.93;1.00;;;;;;;;;;5296302;27;20229;-81
2024/04/10 14:27:13;;;;;;;9.67;1.60;;;;;;;;;;5316748;26;20350;-82
2024/04/10 14:30:17;;;;;;;2.13;1.10;;;;;;;;;;5317177;27;20233;-82
2024/04/10 14:33:22;;;;;;;2.90;1.20;;;;;;;;;;5295988;27;20766;-82
2024/04/10 14:36:27;;;;;;;2.67;1.33;;;;;;;;;;5315541;26;20301;-83
2024/04/10 14:39:31;;;;;;;3.60;1.77;;;;;;;;;;5317088;27;20225;-82
2024/04/10 14:42:35;;;;;;;3.53;1.30;;;;;;;;;;5315358;27;20737;-82
2024/04/10 14:45:40;;;;;;;3.53;1.30;;;;;;;;;;5316511;27;20230;-83
2024/04/10 14:48:44;;;;;;;4.40;1.60;;;;;;;;;;5276207;27;20346;-83
2024/04/10 14:51:49;;;;;;;2.53;1.30;;;;;;;;;;5238489;27;20583;-83
2024/04/10 14:54:53;;;;;;;3.57;1.10;;;;;;;;;;5315029;27;20222;-83
2024/04/10 14:57:57;;;;;;;2.73;1.47;;;;;;;;;;5295694;27;20288;-82
2024/04/10 15:01:17;;;;;;;3.80;1.20;;;;;;;;;;5294673;27;20730;-82
2024/04/10 15:06:02;;;;;;;2.77;1.43;;;;;;;;;;5585323;25;20748;-89
2024/04/10 15:09:06;;;;;;;7.83;1.53;;;;;;;;;;5519805;25;20547;-89
2024/04/10 15:12:13;;;;;;;4.13;1.47;;;;;;;;;;5540874;25;20628;-89
2024/04/10 15:15:17;;;;;;;3.07;1.33;;;;;;;;;;5540900;25;20222;-89
2024/04/10 15:18:26;;;;;;;5.10;1.43;;;;;;;;;;5585205;25;20265;-89
2024/04/10 15:21:30;;;;;;;3.47;1.20;;;;;;;;;;5519535;25;20277;-89
2024/04/10 15:24:35;;;;;;;4.60;1.43;;;;;;;;;;5540849;25;20217;-87
2024/04/10 15:27:40;;;;;;;2.67;1.10;;;;;;;;;;5540810;25;20217;-89
2024/04/10 15:30:55;;;;;;;2.23;1.20;;;;;;;;;;5540694;25;20273;-88
2024/04/10 15:34:00;;;;;;;1.83;0.93;;;;;;;;;;5540901;25;20214;-88
2024/04/10 15:37:04;;;;;;;2.67;1.00;;;;;;;;;;5519933;25;20214;-88
2024/04/10 15:40:10;;;;;;;1.50;0.83;;;;;;;;;;5519532;25;20561;-88
2024/04/10 15:43:15;;;;;;;1.63;1.00;;;;;;;;;;5519514;25;20213;-88
2024/04/10 15:46:21;;;;;;;3.43;1.00;;;;;;;;;;5540715;25;20213;-88
2024/04/10 15:49:25;;;;;;;2.87;1.00;;;;;;;;;;5519271;25;20222;-89
2024/04/10 15:52:29;;;;;;;2.83;1.00;;;;;;;;;;5561668;25;20280;-89
2024/04/10 15:55:34;;;;;;;4.40;1.10;;;;;;;;;;5519308;25;20228;-87
2024/04/10 15:58:41;;;;;;;2.53;1.10;;;;;;;;;;5540060;25;20261;-87
2024/04/10 16:01:46;;;;;;;3.23;1.30;;;;;;;;;;5519643;25;20269;-87
2024/04/10 16:04:51;;;;;;;5.47;1.20;;;;;;;;;;5519533;25;20265;-87
2024/04/10 16:07:56;;;;;;;3.43;1.43;;;;;;;;;;5540368;25;20221;-86
2024/04/10 16:11:00;;;;;;;1.90;1.00;;;;;;;;;;5540303;25;20612;-87
2024/04/10 16:14:04;;;;;;;8.40;1.40;;;;;;;;;;5519139;25;20217;-86
2024/04/10 16:17:08;;;;;;;6.97;1.30;;;;;;;;;;5545179;25;20214;-87
2024/04/10 16:20:13;;;;;;;6.90;1.37;;;;;;;;;;5546153;25;20210;-86
2024/04/10 16:23:18;;;;;;;1.73;0.80;;;;;;;;;;5524250;25;20787;-85
2024/04/10 16:26:27;;;;;;;3.43;1.20;;;;;;;;;;5545326;25;20215;-89
2024/04/10 16:29:31;;;;;;;2.60;1.17;;;;;;;;;;5503061;25;20206;-88
2024/04/10 16:32:36;;;;;;;3.10;1.10;;;;;;;;;;5502652;25;20277;-86
2024/04/10 16:35:43;;;;;;;2.83;1.00;;;;;;;;;;5524561;25;20222;-86
2024/04/10 16:38:48;;;;;;;3.33;1.20;;;;;;;;;;5524264;25;20262;-87
2024/04/10 16:41:52;;;;;;;3.23;0.90;;;;;;;;;;5545338;25;20265;-86
2024/04/10 16:44:57;;;;;;;2.57;1.03;;;;;;;;;;5523565;25;20222;-86
2024/04/10 16:48:01;;;;;;;3.13;0.87;;;;;;;;;;5544632;25;20572;-85
2024/04/10 16:51:07;;;;;;;2.63;1.00;;;;;;;;;;5502786;25;20273;-80
2024/04/10 16:54:11;;;;;;;2.40;1.00;;;;;;;;;;5545250;25;20222;-81
2024/04/10 16:57:16;;;;;;;5.50;1.07;;;;;;;;;;5524483;25;20541;-82
2024/04/10 17:00:20;;;;;;;3.43;1.70;;;;;;;;;;5503459;25;20226;-83
2024/04/10 17:03:25;;;;;;;3.93;1.20;;;;;;;;;;5523938;25;20270;-81
2024/04/10 17:06:30;;;;;;;2.43;1.20;;;;;;;;;;5502580;25;20291;-85
2024/04/10 17:09:34;;;;;;;3.40;1.00;;;;;;;;;;5523339;25;20218;-84
2024/04/10 17:12:38;;;;;;;1.77;0.80;;;;;;;;;;5503313;25;20261;-84
2024/04/10 17:15:43;;;;;;;2.67;1.00;;;;;;;;;;5503832;25;20220;-84
2024/04/10 17:22:10;;;;;;;6.10;1.37;;;;;;;;;;5567533;25;20262;-83
2024/04/10 17:25:14;;;;;;;4.27;1.07;;;;;;;;;;5503116;25;20213;-83
2024/04/10 17:28:18;;;;;;;3.50;1.10;;;;;;;;;;5522361;25;20265;-83
2024/04/10 17:31:23;;;;;;;3.07;1.13;;;;;;;;;;5523963;25;20273;-83
2024/04/10 17:34:27;;;;;;;4.63;2.20;;;;;;;;;;5523929;25;20717;-83
2024/04/10 17:37:32;;;;;;;2.53;1.10;;;;;;;;;;5524116;25;20214;-84
2024/04/10 17:40:36;;;;;;;3.70;1.13;;;;;;;;;;5523040;25;20265;-81
2024/04/10 17:43:40;;;;;;;2.07;0.97;;;;;;;;;;5502340;25;20736;-82
2024/04/10 17:46:45;;;;;;;3.13;1.33;;;;;;;;;;5523496;25;20219;-84
2024/04/10 17:49:49;;;;;;;2.63;1.40;;;;;;;;;;5523445;25;20218;-84
2024/04/10 17:52:53;;;;;;;5.70;1.57;;;;;;;;;;5502262;25;20269;-84
2024/04/10 17:55:57;;;;;;;2.50;1.20;;;;;;;;;;5502347;25;20213;-84
2024/04/10 17:59:01;;;;;;;1.47;0.80;;;;;;;;;;5502640;25;20224;-84
2024/04/10 18:02:06;;;;;;;2.37;1.07;;;;;;;;;;5523173;25;20420;-82
2024/04/10 18:05:10;;;;;;;2.33;1.00;;;;;;;;;;5501720;25;20288;-83
2024/04/10 18:08:14;;;;;;;1.67;1.00;;;;;;;;;;5523311;25;20221;-83
2024/04/10 18:11:18;;;;;;;3.47;1.00;;;;;;;;;;5501749;25;20597;-84
2024/04/10 18:14:24;;;;;;;2.70;1.00;;;;;;;;;;5544249;25;20218;-84
2024/04/10 18:17:28;;;;;;;3.00;0.97;;;;;;;;;;5522589;25;20218;-83
2024/04/10 18:20:34;;;;;;;2.47;0.90;;;;;;;;;;5502030;25;21944;-83
2024/04/10 18:23:39;;;;;;;3.60;0.97;;;;;;;;;;5522062;25;20218;-83
2024/04/10 18:26:43;;;;;;;4.10;1.20;;;;;;;;;;5543289;25;20226;-83
2024/04/10 18:29:51;;;;;;;3.03;0.90;;;;;;;;;;5544208;25;20261;-84
2024/04/10 18:32:55;;;;;;;3.03;0.90;;;;;;;;;;5522535;25;20265;-84
2024/04/10 18:36:03;;;;;;;1.97;0.87;;;;;;;;;;5524122;25;20210;-83
2024/04/10 18:39:08;;;;;;;3.50;1.13;;;;;;;;;;5573680;25;20216;-86
2024/04/10 18:42:15;;;;;;;3.73;1.00;;;;;;;;;;5530624;25;20255;-86